Weather at Hausen am Albis Airfield

Public forecast

Using degrees Celsius for public forecast. Weather courtesy of forecast.io.

Closest aviation weather report (METAR) to Hausen am Albis Airfield

Closest report is Dübendorf Air Base, 11.0 nm (20.4 km) NNE.

2024/07/21 10:50 (retrieved 31 minutes ago)

LSMD 211050Z AUTO 32005KT 280V020 9999NDV FEW130 26/17 Q1011 RMK

Closest aviation forecast (TAF) to Hausen am Albis Airfield

Closest forecast is Dübendorf Air Base, 11.0 nm (20.4 km) NNE.

2024/07/21 10:00 (retrieved 1 hour ago)

TAF LSMD 210925Z 2110/2216 27003KT 9999 FEW030 SCT065 PROB40 TEMPO 2114/2118 SHRA SCT050TCU PROB30 TEMPO 2114/2118 4500 TSRA SCT050CB PROB40 TEMPO 2208/2214 SHRA